createdAt,value
2023-01-13T00:01:32.072Z,4.40
2023-01-13T00:04:01.100Z,4.38
2023-01-13T00:06:29.425Z,4.35
2023-01-13T00:08:57.949Z,4.33
2023-01-13T00:11:26.531Z,4.32
2023-01-13T00:13:54.897Z,4.30
2023-01-13T00:16:23.182Z,4.29
2023-01-13T00:18:51.411Z,4.28
2023-01-13T00:21:23.223Z,4.26
2023-01-13T00:23:55.548Z,4.26
2023-01-13T00:26:27.586Z,4.24
2023-01-13T00:29:00.143Z,4.21
2023-01-13T00:31:30.228Z,4.20
2023-01-13T00:34:02.320Z,4.19
2023-01-13T00:36:31.155Z,4.20
2023-01-13T00:38:59.960Z,4.20
2023-01-13T00:41:28.145Z,4.28
2023-01-13T00:43:56.252Z,4.33
2023-01-13T00:46:24.389Z,4.33
2023-01-13T00:48:52.967Z,4.34
2023-01-13T00:51:22.001Z,4.37
2023-01-13T00:53:52.237Z,4.40
2023-01-13T00:56:40.771Z,4.44
2023-01-13T00:59:14.004Z,4.48
2023-01-13T01:04:33.852Z,4.55
2023-01-13T01:07:01.929Z,4.58
2023-01-13T01:09:33.516Z,4.63
2023-01-13T01:12:01.960Z,4.67
2023-01-13T01:14:30.085Z,4.71
2023-01-13T01:16:58.170Z,4.74
2023-01-13T01:19:26.280Z,4.78
2023-01-13T01:21:55.062Z,4.80
2023-01-13T01:24:23.239Z,4.82
2023-01-13T01:26:51.345Z,4.84
2023-01-13T01:29:19.525Z,4.86
2023-01-13T01:31:47.720Z,4.88
2023-01-13T01:34:15.889Z,4.88
2023-01-13T01:36:44.053Z,4.89
2023-01-13T01:39:12.195Z,4.88
2023-01-13T01:42:00.565Z,4.88
2023-01-13T01:44:52.485Z,4.89
2023-01-13T01:47:22.207Z,4.89
2023-01-13T01:49:50.915Z,4.87
2023-01-13T01:52:27.991Z,4.88
2023-01-13T01:55:10.649Z,4.90
2023-01-13T01:58:01.980Z,4.91
2023-01-13T02:00:32.263Z,4.91
2023-01-13T02:03:01.424Z,4.94
2023-01-13T02:05:29.618Z,4.95
2023-01-13T02:07:59.999Z,4.94
2023-01-13T02:10:30.209Z,4.93
2023-01-13T02:13:05.046Z,4.91
2023-01-13T02:15:51.133Z,4.91
2023-01-13T02:19:02.868Z,4.90
2023-01-13T02:22:08.200Z,4.90
2023-01-13T02:25:18.073Z,4.89
2023-01-13T02:28:11.269Z,4.87
2023-01-13T02:31:27.231Z,4.87
2023-01-13T02:34:15.013Z,4.86
2023-01-13T02:36:59.405Z,4.88
2023-01-13T02:39:39.930Z,4.88
2023-01-13T02:42:36.548Z,4.88
2023-01-13T02:45:13.869Z,4.92
2023-01-13T02:47:46.324Z,4.90
2023-01-13T02:50:27.960Z,4.89
2023-01-13T02:53:19.677Z,4.88
2023-01-13T02:55:53.434Z,4.88
2023-01-13T02:58:27.544Z,4.88
2023-01-13T03:00:56.025Z,4.89
2023-01-13T03:03:24.938Z,4.88
2023-01-13T03:06:10.489Z,4.88
2023-01-13T03:09:32.520Z,4.89
2023-01-13T03:12:22.826Z,4.89
2023-01-13T03:15:08.582Z,4.87
2023-01-13T03:18:07.565Z,4.86
2023-01-13T03:20:47.758Z,4.85
2023-01-13T03:23:31.949Z,4.84
2023-01-13T03:26:17.026Z,4.85
2023-01-13T03:28:54.276Z,4.88
2023-01-13T03:31:31.891Z,4.89
2023-01-13T03:34:16.124Z,4.89
2023-01-13T03:36:49.335Z,4.89
2023-01-13T03:39:22.706Z,4.90
2023-01-13T03:41:59.907Z,4.88
2023-01-13T03:44:38.212Z,4.88
2023-01-13T03:47:12.264Z,4.89
2023-01-13T03:49:57.316Z,4.89
2023-01-13T03:52:32.638Z,4.92
2023-01-13T03:55:12.003Z,4.94
2023-01-13T03:57:49.373Z,4.95
2023-01-13T04:00:19.901Z,4.96
2023-01-13T04:03:23.124Z,4.97
2023-01-13T04:06:03.658Z,4.99
2023-01-13T04:08:36.314Z,5.01
2023-01-13T04:11:14.632Z,5.00
2023-01-13T04:13:45.156Z,4.99
2023-01-13T04:16:13.713Z,5.00
2023-01-13T04:18:41.927Z,5.00
2023-01-13T04:21:10.155Z,4.98
2023-01-13T04:23:38.410Z,4.95
2023-01-13T04:26:06.549Z,4.98
2023-01-13T04:28:35.115Z,4.99
2023-01-13T04:31:03.290Z,4.98
2023-01-13T04:33:31.423Z,4.97
2023-01-13T04:35:59.567Z,4.93
2023-01-13T04:38:27.885Z,4.86
2023-01-13T04:40:56.007Z,4.80
2023-01-13T04:43:24.144Z,4.76
2023-01-13T04:45:52.334Z,4.72
2023-01-13T04:48:20.523Z,4.67
2023-01-13T04:50:48.648Z,4.65
2023-01-13T04:53:16.723Z,4.61
2023-01-13T04:55:44.979Z,4.59
2023-01-13T04:58:13.096Z,4.55
2023-01-13T05:00:41.507Z,4.51
2023-01-13T05:03:10.025Z,4.48
2023-01-13T05:05:38.245Z,4.45
2023-01-13T05:08:06.430Z,4.43
2023-01-13T05:10:34.736Z,4.41
2023-01-13T05:13:21.429Z,4.39
2023-01-13T05:16:24.871Z,4.38
2023-01-13T05:18:53.057Z,4.36
2023-01-13T05:21:40.880Z,4.35
2023-01-13T05:24:28.188Z,4.33
2023-01-13T05:26:56.355Z,4.31
2023-01-13T05:29:24.466Z,4.30
2023-01-13T05:31:52.587Z,4.29
2023-01-13T05:34:20.938Z,4.27
2023-01-13T05:36:49.198Z,4.26
2023-01-13T05:39:17.294Z,4.25
2023-01-13T05:42:04.194Z,4.24
2023-01-13T05:44:32.350Z,4.23
2023-01-13T05:47:00.435Z,4.23
2023-01-13T05:49:28.547Z,4.23
2023-01-13T05:51:56.767Z,4.22
2023-01-13T05:54:25.168Z,4.22
2023-01-13T05:56:53.288Z,4.22
2023-01-13T05:59:21.420Z,4.22
2023-01-13T06:01:50.667Z,4.24
2023-01-13T06:04:18.889Z,4.24
2023-01-13T06:06:47.392Z,4.24
2023-01-13T06:09:15.644Z,4.25
2023-01-13T06:11:44.121Z,4.26
2023-01-13T06:14:12.200Z,4.27
2023-01-13T06:16:40.462Z,4.28
2023-01-13T06:19:11.814Z,4.28
2023-01-13T06:21:40.692Z,4.28
2023-01-13T06:24:09.282Z,4.29
2023-01-13T06:26:41.572Z,4.29
2023-01-13T06:29:10.240Z,4.30
2023-01-13T06:31:39.658Z,4.30
2023-01-13T06:34:13.375Z,4.31
2023-01-13T06:36:48.899Z,4.30
2023-01-13T06:39:21.848Z,4.31
2023-01-13T06:42:12.994Z,4.31
2023-01-13T06:44:41.190Z,4.30
2023-01-13T06:47:09.496Z,4.29
2023-01-13T06:49:37.595Z,4.27
2023-01-13T06:52:05.994Z,4.26
2023-01-13T06:54:34.856Z,4.26
2023-01-13T06:57:03.163Z,4.26
2023-01-13T06:59:34.387Z,4.26
2023-01-13T07:02:03.067Z,4.25
2023-01-13T07:04:31.324Z,4.25
2023-01-13T07:07:00.096Z,4.27
2023-01-13T07:09:28.174Z,4.28
2023-01-13T07:11:56.297Z,4.30
2023-01-13T07:14:43.111Z,4.30
2023-01-13T07:17:11.306Z,4.29
2023-01-13T07:19:39.476Z,4.31
2023-01-13T07:22:07.677Z,4.33
2023-01-13T07:24:35.830Z,4.35
2023-01-13T07:27:04.118Z,4.36
2023-01-13T07:29:32.335Z,4.38
2023-01-13T07:32:01.522Z,4.39
2023-01-13T07:34:29.688Z,4.41
2023-01-13T07:36:57.803Z,4.43
2023-01-13T07:39:25.943Z,4.46
2023-01-13T07:42:12.945Z,4.49
2023-01-13T07:44:41.101Z,4.53
2023-01-13T07:47:11.287Z,4.55
2023-01-13T07:49:39.482Z,4.60
2023-01-13T07:52:07.653Z,4.63
2023-01-13T07:54:40.955Z,4.66
2023-01-13T07:57:09.490Z,4.70
2023-01-13T07:59:37.639Z,4.74
2023-01-13T08:02:06.321Z,4.78
2023-01-13T08:04:34.687Z,4.81
2023-01-13T08:07:04.583Z,4.84
2023-01-13T08:09:32.907Z,4.87
2023-01-13T08:12:19.868Z,4.89
2023-01-13T08:14:48.018Z,4.92
2023-01-13T08:17:16.121Z,4.95
2023-01-13T08:19:44.225Z,4.97
2023-01-13T08:22:12.336Z,5.00
2023-01-13T08:24:40.450Z,5.02
2023-01-13T08:27:08.622Z,5.03
2023-01-13T08:29:36.718Z,5.05
2023-01-13T08:32:05.141Z,5.16
2023-01-13T08:34:33.284Z,5.23
2023-01-13T08:37:01.464Z,5.27
2023-01-13T08:39:29.635Z,5.32
2023-01-13T08:41:58.786Z,5.39
2023-01-13T08:44:29.757Z,5.46
2023-01-13T08:46:58.443Z,5.51
2023-01-13T08:49:26.855Z,5.55
2023-01-13T08:51:55.037Z,5.63
2023-01-13T08:54:23.213Z,5.70
2023-01-13T08:56:51.528Z,5.74
2023-01-13T08:59:20.753Z,5.79
2023-01-13T09:01:49.641Z,5.86
2023-01-13T09:04:22.861Z,5.94
2023-01-13T09:06:51.251Z,6.03
2023-01-13T09:09:19.611Z,6.11
2023-01-13T09:12:09.829Z,6.17
2023-01-13T09:14:39.962Z,6.20
2023-01-13T09:17:08.143Z,6.22
2023-01-13T09:19:36.891Z,6.26
2023-01-13T09:22:05.038Z,6.32
2023-01-13T09:24:33.247Z,6.37
2023-01-13T09:27:01.433Z,6.43
2023-01-13T09:29:29.752Z,6.49
2023-01-13T09:32:01.202Z,6.56
2023-01-13T09:34:47.844Z,6.64
2023-01-13T09:37:16.194Z,6.72
2023-01-13T09:39:44.493Z,6.78
2023-01-13T09:42:45.967Z,6.84
2023-01-13T09:45:25.329Z,6.87
2023-01-13T09:48:01.053Z,6.90
2023-01-13T09:50:51.007Z,6.90
2023-01-13T09:53:29.236Z,6.88
2023-01-13T09:55:57.419Z,6.87
2023-01-13T09:58:26.012Z,6.85
2023-01-13T10:01:16.534Z,6.85
2023-01-13T10:03:45.444Z,6.82
2023-01-13T10:06:38.829Z,6.83
2023-01-13T10:09:15.933Z,6.84
2023-01-13T10:12:05.954Z,6.85
2023-01-13T10:14:50.699Z,6.84
2023-01-13T10:17:43.165Z,6.85
2023-01-13T10:20:41.827Z,6.89
2023-01-13T10:23:47.252Z,6.90
2023-01-13T10:26:58.537Z,6.91
2023-01-13T10:29:30.263Z,6.91
2023-01-13T10:32:00.207Z,6.91
2023-01-13T10:34:29.514Z,6.93
2023-01-13T10:37:09.564Z,6.96
2023-01-13T10:39:47.291Z,6.97
2023-01-13T10:42:22.945Z,7.01
2023-01-13T10:44:57.063Z,7.04
2023-01-13T10:47:34.482Z,7.04
2023-01-13T10:50:11.656Z,7.04
2023-01-13T10:52:55.560Z,7.00
2023-01-13T10:55:33.228Z,6.96
2023-01-13T10:58:20.571Z,6.94
2023-01-13T11:00:58.457Z,6.92
2023-01-13T11:03:34.424Z,6.88
2023-01-13T11:06:02.677Z,6.85
2023-01-13T11:08:45.517Z,6.82
2023-01-13T11:11:35.109Z,6.81
2023-01-13T11:14:27.842Z,6.79
2023-01-13T11:16:59.092Z,6.75
2023-01-13T11:19:30.894Z,6.74
2023-01-13T11:22:23.517Z,6.74
2023-01-13T11:25:09.919Z,6.72
2023-01-13T11:28:17.217Z,6.71
2023-01-13T11:31:47.142Z,6.71
2023-01-13T11:34:45.293Z,6.73
2023-01-13T11:37:26.356Z,6.76
2023-01-13T11:40:21.582Z,6.79
2023-01-13T11:43:18.956Z,6.82
2023-01-13T11:45:58.379Z,6.83
2023-01-13T11:48:35.191Z,6.85
2023-01-13T11:51:46.890Z,6.88
2023-01-13T11:54:14.972Z,6.92
2023-01-13T11:57:07.657Z,6.94
2023-01-13T11:59:57.152Z,6.96
2023-01-13T12:02:37.344Z,7.02
2023-01-13T12:05:29.665Z,7.08
2023-01-13T12:08:42.783Z,7.13
2023-01-13T12:12:08.180Z,7.18
2023-01-13T12:14:57.487Z,7.23
2023-01-13T12:17:38.538Z,7.30
2023-01-13T12:20:39.178Z,7.34
2023-01-13T12:23:34.280Z,7.36
2023-01-13T12:26:18.782Z,7.39
2023-01-13T12:29:01.579Z,7.40
2023-01-13T12:31:31.865Z,7.42
2023-01-13T12:34:30.784Z,7.44
2023-01-13T12:37:54.824Z,7.48
2023-01-13T12:40:34.262Z,7.51
2023-01-13T12:43:43.679Z,7.55
2023-01-13T12:46:24.550Z,7.57
2023-01-13T12:48:56.884Z,7.59
2023-01-13T12:51:37.787Z,7.60
2023-01-13T12:54:37.793Z,7.63
2023-01-13T12:57:25.173Z,7.61
2023-01-13T13:00:05.170Z,7.59
2023-01-13T13:02:39.144Z,7.57
2023-01-13T13:05:22.758Z,7.54
2023-01-13T13:08:10.781Z,7.51
2023-01-13T13:10:46.803Z,7.45
2023-01-13T13:13:49.115Z,7.37
2023-01-13T13:16:26.452Z,7.32
2023-01-13T13:19:22.560Z,7.29
2023-01-13T13:22:09.902Z,7.25
2023-01-13T13:24:40.284Z,7.22
2023-01-13T13:27:50.107Z,7.26
2023-01-13T13:30:30.273Z,7.27
2023-01-13T13:33:20.422Z,7.26
2023-01-13T13:36:25.474Z,7.27
2023-01-13T13:39:34.433Z,7.27
2023-01-13T13:42:46.585Z,7.28
2023-01-13T13:45:40.288Z,7.30
2023-01-13T13:48:34.392Z,7.32
2023-01-13T13:51:25.160Z,7.33
2023-01-13T13:53:54.773Z,7.33
2023-01-13T13:56:27.394Z,7.33
2023-01-13T13:58:55.714Z,7.34
2023-01-13T14:01:38.540Z,7.32
2023-01-13T14:04:37.175Z,7.31
2023-01-13T14:07:22.006Z,7.30
2023-01-13T14:09:54.450Z,7.29
2023-01-13T14:12:26.400Z,7.28
2023-01-13T14:14:57.614Z,7.27
2023-01-13T14:17:29.343Z,7.25
2023-01-13T14:20:10.545Z,7.24
2023-01-13T14:22:38.689Z,7.23
2023-01-13T14:25:45.820Z,7.19
2023-01-13T14:28:13.925Z,7.16
2023-01-13T14:30:43.184Z,7.14
2023-01-13T14:33:26.939Z,7.09
2023-01-13T14:36:20.065Z,7.03
2023-01-13T14:39:03.262Z,6.97
2023-01-13T14:41:48.327Z,6.94
2023-01-13T14:44:36.450Z,6.87
2023-01-13T14:47:20.176Z,6.79
2023-01-13T14:50:02.498Z,6.70
2023-01-13T14:52:34.678Z,6.61
2023-01-13T14:55:10.100Z,6.54
2023-01-13T14:57:44.064Z,6.47
2023-01-13T15:00:15.210Z,6.39
2023-01-13T15:02:58.415Z,6.31
2023-01-13T15:05:26.512Z,6.22
2023-01-13T15:08:09.137Z,6.15
2023-01-13T15:11:05.937Z,6.08
2023-01-13T15:14:01.504Z,6.01
2023-01-13T15:16:33.372Z,5.91
2023-01-13T15:19:03.476Z,5.81
2023-01-13T15:21:31.647Z,5.71
2023-01-13T15:23:59.977Z,5.63
2023-01-13T15:26:30.833Z,5.58
2023-01-13T15:29:00.807Z,5.52
2023-01-13T15:31:29.211Z,5.45
2023-01-13T15:33:58.825Z,5.41
2023-01-13T15:36:31.143Z,5.36
2023-01-13T15:39:01.337Z,5.32
2023-01-13T15:41:48.017Z,5.28
2023-01-13T15:44:34.963Z,5.24
2023-01-13T15:47:07.686Z,5.19
2023-01-13T15:49:40.216Z,5.14
2023-01-13T15:52:24.589Z,5.09
2023-01-13T15:54:54.107Z,5.06
2023-01-13T15:57:25.586Z,5.02
2023-01-13T16:00:00.873Z,4.97
2023-01-13T16:02:31.001Z,4.93
2023-01-13T16:04:59.428Z,4.90
2023-01-13T16:07:27.711Z,4.85
2023-01-13T16:09:55.950Z,4.82
2023-01-13T16:12:24.117Z,4.77
2023-01-13T16:14:52.235Z,4.74
2023-01-13T16:17:24.935Z,4.71
2023-01-13T16:19:53.089Z,4.68
2023-01-13T16:22:21.829Z,4.65
2023-01-13T16:24:50.063Z,4.62
2023-01-13T16:27:25.215Z,4.57
2023-01-13T16:29:53.431Z,4.53
2023-01-13T16:32:21.732Z,4.50
2023-01-13T16:34:50.168Z,4.47
2023-01-13T16:37:24.985Z,4.46
2023-01-13T16:39:54.679Z,4.42
2023-01-13T16:42:23.223Z,4.40
2023-01-13T16:44:53.025Z,4.38
2023-01-13T16:47:22.888Z,4.37
2023-01-13T16:49:51.633Z,4.34
2023-01-13T16:52:19.773Z,4.32
2023-01-13T16:54:47.905Z,4.28
2023-01-13T16:57:15.980Z,4.25
2023-01-13T16:59:44.130Z,4.23
2023-01-13T17:02:16.345Z,4.19
2023-01-13T17:04:45.062Z,4.17
2023-01-13T17:07:16.944Z,4.14
2023-01-13T17:09:45.067Z,4.11
2023-01-13T17:12:13.157Z,4.07
2023-01-13T17:14:43.429Z,4.04
2023-01-13T17:17:29.829Z,4.02
2023-01-13T17:19:57.990Z,4.01
2023-01-13T17:22:26.144Z,3.99
2023-01-13T17:24:54.295Z,3.95
2023-01-13T17:27:23.253Z,3.93
2023-01-13T17:29:51.581Z,3.91
2023-01-13T17:32:21.404Z,3.89
2023-01-13T17:34:50.280Z,3.86
2023-01-13T17:37:18.556Z,3.83
2023-01-13T17:39:48.716Z,3.80
2023-01-13T17:42:17.295Z,3.78
2023-01-13T17:44:46.982Z,3.75
2023-01-13T17:47:15.209Z,3.72
2023-01-13T17:49:43.341Z,3.70
2023-01-13T17:52:11.483Z,3.67
2023-01-13T17:54:40.078Z,3.63
2023-01-13T17:57:08.890Z,3.58
2023-01-13T17:59:36.979Z,3.53
2023-01-13T18:02:05.324Z,3.50
2023-01-13T18:04:33.893Z,3.46
2023-01-13T18:07:02.016Z,3.42
2023-01-13T18:09:30.172Z,3.40
2023-01-13T18:11:58.923Z,3.37
2023-01-13T18:14:28.179Z,3.31
2023-01-13T18:16:56.326Z,3.26
2023-01-13T18:19:43.146Z,3.21
2023-01-13T18:22:32.961Z,3.18
2023-01-13T18:25:21.787Z,3.11
2023-01-13T18:27:50.094Z,3.03
2023-01-13T18:30:18.338Z,3.00
2023-01-13T18:32:46.480Z,3.05
2023-01-13T18:35:14.589Z,3.06
2023-01-13T18:37:43.098Z,3.05
2023-01-13T18:40:13.726Z,3.03
2023-01-13T18:42:54.987Z,3.03
2023-01-13T18:45:27.492Z,3.03
2023-01-13T18:47:58.713Z,3.05
2023-01-13T18:50:28.286Z,3.07
2023-01-13T18:52:57.012Z,3.05
2023-01-13T18:55:27.129Z,3.05
2023-01-13T18:57:56.285Z,3.06
2023-01-13T19:00:26.929Z,3.05
2023-01-13T19:05:35.919Z,3.04
2023-01-13T19:08:05.489Z,3.03
2023-01-13T19:10:33.759Z,3.01
2023-01-13T19:13:01.973Z,3.04
2023-01-13T19:15:30.673Z,3.06
2023-01-13T19:18:00.335Z,3.06
2023-01-13T19:20:28.679Z,3.05
2023-01-13T19:22:56.761Z,3.03
2023-01-13T19:25:24.939Z,3.00
2023-01-13T19:27:53.070Z,3.01
2023-01-13T19:30:21.340Z,3.02
2023-01-13T19:32:49.446Z,3.04
2023-01-13T19:35:18.137Z,3.05
2023-01-13T19:37:46.323Z,3.04
2023-01-13T19:40:14.785Z,3.02
2023-01-13T19:43:02.911Z,2.97
2023-01-13T19:45:33.753Z,2.92
2023-01-13T19:48:04.651Z,2.89
2023-01-13T19:50:40.036Z,2.87
2023-01-13T19:53:15.639Z,2.86
2023-01-13T19:55:48.658Z,2.82
2023-01-13T19:58:20.711Z,2.78
2023-01-13T20:00:49.121Z,2.73
2023-01-13T20:03:23.709Z,2.71
2023-01-13T20:05:53.844Z,2.69
2023-01-13T20:08:22.964Z,2.69
2023-01-13T20:11:11.124Z,2.68
2023-01-13T20:13:39.252Z,2.63
2023-01-13T20:16:08.093Z,2.59
2023-01-13T20:18:37.207Z,2.58
2023-01-13T20:21:07.675Z,2.57
2023-01-13T20:23:36.365Z,2.57
2023-01-13T20:26:07.631Z,2.55
2023-01-13T20:28:38.895Z,2.53
2023-01-13T20:31:12.154Z,2.51
2023-01-13T20:33:40.274Z,2.51
2023-01-13T20:36:16.157Z,2.51
2023-01-13T20:38:44.268Z,2.48
2023-01-13T20:41:30.948Z,2.49
2023-01-13T20:43:59.083Z,2.48
2023-01-13T20:46:27.702Z,2.45
2023-01-13T20:48:55.904Z,2.42
2023-01-13T20:51:24.002Z,2.40
2023-01-13T20:53:52.120Z,2.39
2023-01-13T20:56:20.236Z,2.39
2023-01-13T20:58:48.364Z,2.37
2023-01-13T21:01:16.612Z,2.35
2023-01-13T21:03:45.027Z,2.33
2023-01-13T21:06:16.245Z,2.31
2023-01-13T21:08:46.504Z,2.28
2023-01-13T21:11:37.344Z,2.30
2023-01-13T21:14:24.444Z,2.28
2023-01-13T21:16:52.553Z,2.24
2023-01-13T21:19:20.687Z,2.20
2023-01-13T21:21:48.830Z,2.17
2023-01-13T21:24:16.955Z,2.12
2023-01-13T21:26:45.120Z,2.11
2023-01-13T21:29:13.272Z,2.10
2023-01-13T21:31:41.509Z,2.10
2023-01-13T21:34:10.362Z,2.10
2023-01-13T21:36:38.557Z,2.10
2023-01-13T21:39:06.709Z,2.10
2023-01-13T21:41:53.302Z,2.08
2023-01-13T21:44:40.322Z,2.01
2023-01-13T21:47:35.869Z,1.96
2023-01-13T21:50:08.040Z,1.94
2023-01-13T21:52:37.416Z,1.96
2023-01-13T21:55:20.396Z,1.99
2023-01-13T21:57:54.218Z,1.97
2023-01-13T22:00:25.324Z,1.93
2023-01-13T22:02:54.202Z,1.88
2023-01-13T22:05:24.914Z,1.86
2023-01-13T22:07:53.181Z,1.82
2023-01-13T22:10:25.177Z,1.78
2023-01-13T22:13:00.455Z,1.75
2023-01-13T22:15:30.391Z,1.73
2023-01-13T22:17:59.796Z,1.69
2023-01-13T22:20:28.419Z,1.64
2023-01-13T22:22:58.153Z,1.61
2023-01-13T22:25:26.329Z,1.58
2023-01-13T22:28:03.473Z,1.52
2023-01-13T22:30:32.643Z,1.48
2023-01-13T22:33:00.886Z,1.44
2023-01-13T22:35:29.029Z,1.44
2023-01-13T22:37:58.230Z,1.42
2023-01-13T22:40:26.500Z,1.39
2023-01-13T22:42:54.635Z,1.36
2023-01-13T22:45:22.754Z,1.34
2023-01-13T22:47:51.029Z,1.32
2023-01-13T22:50:20.979Z,1.31
2023-01-13T22:52:49.104Z,1.30
2023-01-13T22:55:17.189Z,1.27
2023-01-13T22:57:48.159Z,1.24
2023-01-13T23:00:19.138Z,1.21
2023-01-13T23:02:47.566Z,1.15
2023-01-13T23:05:15.839Z,1.11
2023-01-13T23:07:43.920Z,1.05
2023-01-13T23:10:12.159Z,1.01
2023-01-13T23:12:40.312Z,0.97
2023-01-13T23:15:09.092Z,0.89
2023-01-13T23:17:37.291Z,0.88
2023-01-13T23:20:05.823Z,0.86
2023-01-13T23:22:38.562Z,0.85
2023-01-13T23:25:08.407Z,0.88
2023-01-13T23:27:37.386Z,0.90
2023-01-13T23:30:08.871Z,0.90
2023-01-13T23:32:36.994Z,0.88
2023-01-13T23:35:05.599Z,0.88
2023-01-13T23:37:34.381Z,0.88
2023-01-13T23:40:02.854Z,0.86
2023-01-13T23:42:31.054Z,0.87
2023-01-13T23:44:59.237Z,0.86
2023-01-13T23:47:28.659Z,0.85
2023-01-13T23:49:56.788Z,0.85
2023-01-13T23:52:24.986Z,0.84
2023-01-13T23:54:53.112Z,0.81
2023-01-13T23:57:21.233Z,0.80
2023-01-13T23:59:49.417Z,0.77
